createdAt,value
2018-12-11T00:05:16.444Z,0.60
2018-12-11T00:10:42.274Z,0.60
2018-12-11T00:13:15.495Z,0.60
2018-12-11T00:15:44.252Z,0.70
2018-12-11T00:18:14.887Z,0.70
2018-12-11T00:20:45.338Z,0.80
2018-12-11T00:23:15.928Z,0.90
2018-12-11T00:28:48.502Z,1.00
2018-12-11T00:31:19.319Z,1.00
2018-12-11T00:33:49.769Z,1.00
2018-12-11T00:36:30.918Z,0.90
2018-12-11T00:39:05.368Z,0.90
2018-12-11T00:41:34.694Z,0.80
2018-12-11T00:44:03.641Z,0.70
2018-12-11T00:46:34.346Z,0.60
2018-12-11T00:49:05.826Z,0.60
2018-12-11T00:51:38.943Z,0.50
2018-12-11T00:54:12.468Z,0.40
2018-12-11T00:56:41.576Z,0.40
2018-12-11T00:59:11.997Z,0.30
2018-12-11T01:01:47.340Z,0.30
2018-12-11T01:04:24.835Z,0.30
2018-12-11T01:14:25.010Z,0.20
2018-12-11T01:16:59.012Z,0.20
2018-12-11T01:19:30.382Z,0.20
2018-12-11T01:22:03.675Z,0.20
2018-12-11T01:27:29.619Z,0.30
2018-12-11T01:30:03.255Z,0.30
2018-12-11T01:32:33.832Z,0.30
2018-12-11T01:35:17.750Z,0.40
2018-12-11T01:37:49.096Z,0.40
2018-12-11T01:40:22.575Z,0.30
2018-12-11T01:42:57.993Z,0.40
2018-12-11T01:45:35.024Z,0.60
2018-12-11T01:48:08.368Z,0.80
2018-12-11T01:50:52.467Z,1.00
2018-12-11T01:53:29.737Z,1.10
2018-12-11T01:56:03.271Z,1.20
2018-12-11T01:58:36.802Z,1.30
2018-12-11T02:01:07.576Z,1.50
2018-12-11T02:03:41.012Z,1.50
2018-12-11T02:06:21.101Z,1.50
2018-12-11T02:08:51.991Z,1.50
2018-12-11T02:11:22.572Z,1.60
2018-12-11T02:13:51.360Z,1.50
2018-12-11T02:16:22.044Z,1.40
2018-12-11T02:18:55.302Z,1.40
2018-12-11T02:26:35.027Z,1.50
2018-12-11T02:29:03.649Z,1.60
2018-12-11T02:31:36.794Z,1.60
2018-12-11T02:34:10.346Z,1.60
2018-12-11T02:36:44.484Z,1.60
2018-12-11T02:39:18.081Z,1.60
2018-12-11T02:41:48.864Z,1.60
2018-12-11T02:44:22.876Z,1.50
2018-12-11T02:46:58.335Z,1.40
2018-12-11T02:49:35.832Z,1.30
2018-12-11T02:52:06.837Z,1.30
2018-12-11T02:54:37.300Z,1.30
2018-12-11T03:00:00.347Z,1.30
2018-12-11T03:02:32.097Z,1.30
2018-12-11T03:05:02.639Z,1.40
2018-12-11T03:07:36.759Z,1.40
2018-12-11T03:10:12.417Z,1.50
2018-12-11T03:12:43.249Z,1.60
2018-12-11T03:15:14.130Z,1.60
2018-12-11T03:17:44.610Z,1.60
2018-12-11T03:20:15.500Z,1.70
2018-12-11T03:22:46.004Z,1.70
2018-12-11T03:25:14.503Z,1.60
2018-12-11T03:27:48.123Z,1.70
2018-12-11T03:30:18.982Z,1.60
2018-12-11T03:32:49.631Z,1.50
2018-12-11T03:35:24.747Z,1.50
2018-12-11T03:37:55.535Z,1.40
2018-12-11T03:40:29.426Z,1.40
2018-12-11T03:43:02.690Z,1.40
2018-12-11T03:45:36.214Z,1.30
2018-12-11T03:48:09.560Z,1.30
2018-12-11T03:50:40.145Z,1.30
2018-12-11T03:53:09.469Z,1.30
2018-12-11T03:55:44.849Z,1.40
2018-12-11T03:58:16.015Z,1.50
2018-12-11T04:00:47.405Z,1.50
2018-12-11T04:06:21.818Z,1.50
2018-12-11T04:08:52.763Z,1.40
2018-12-11T04:11:22.027Z,1.30
2018-12-11T04:13:52.665Z,1.20
2018-12-11T04:16:21.584Z,1.10
2018-12-11T04:18:54.938Z,1.10
2018-12-11T04:21:32.515Z,1.00
2018-12-11T04:24:08.162Z,1.00
2018-12-11T04:26:41.747Z,1.00
2018-12-11T04:29:10.757Z,0.90
2018-12-11T04:31:44.188Z,0.90
2018-12-11T04:34:15.358Z,0.80
2018-12-11T04:36:46.017Z,0.90
2018-12-11T04:39:19.284Z,0.90
2018-12-11T04:41:50.108Z,0.90
2018-12-11T04:44:20.692Z,0.90
2018-12-11T04:46:51.374Z,0.80
2018-12-11T04:49:22.072Z,0.90
2018-12-11T04:51:55.636Z,0.90
2018-12-11T04:54:28.963Z,0.90
2018-12-11T04:57:02.161Z,0.80
2018-12-11T04:59:35.908Z,0.60
2018-12-11T05:02:06.711Z,0.60
2018-12-11T05:04:53.245Z,0.60
2018-12-11T05:07:28.058Z,0.60
2018-12-11T05:10:01.792Z,0.70
2018-12-11T05:12:29.240Z,0.70
2018-12-11T05:15:03.191Z,0.80
2018-12-11T05:17:31.951Z,0.80
2018-12-11T05:20:07.222Z,0.80
2018-12-11T05:25:45.394Z,0.70
2018-12-11T05:31:13.891Z,0.60
2018-12-11T05:33:47.472Z,0.60
2018-12-11T05:36:18.059Z,0.60
2018-12-11T05:38:51.591Z,0.50
2018-12-11T05:41:24.723Z,0.40
2018-12-11T05:43:58.383Z,0.30
2018-12-11T05:46:29.658Z,0.30
2018-12-11T05:49:00.836Z,0.20
2018-12-11T05:51:34.047Z,0.20
2018-12-11T05:54:07.583Z,0.10
2018-12-11T05:56:38.363Z,0.20
2018-12-11T05:59:08.958Z,0.10
2018-12-11T06:01:42.499Z,0.10
2018-12-11T06:04:16.170Z,0.10
2018-12-11T06:06:47.075Z,0.00
2018-12-11T06:09:17.975Z,-0.10
2018-12-11T06:11:48.671Z,-0.10
2018-12-11T06:14:19.803Z,-0.20
2018-12-11T06:16:55.135Z,-0.20
2018-12-11T06:19:29.051Z,-0.30
2018-12-11T06:22:19.492Z,-0.30
2018-12-11T06:24:53.520Z,-0.40
2018-12-11T06:27:24.577Z,-0.40
2018-12-11T06:29:52.951Z,-0.20
2018-12-11T06:32:37.026Z,-0.20
2018-12-11T06:35:10.175Z,-0.20
2018-12-11T06:37:41.149Z,-0.20
2018-12-11T06:40:11.628Z,-0.20
2018-12-11T06:42:39.086Z,-0.20
2018-12-11T06:45:12.833Z,-0.20
2018-12-11T06:47:41.538Z,-0.20
2018-12-11T06:50:12.204Z,-0.30
2018-12-11T06:52:42.893Z,-0.20
2018-12-11T06:55:29.176Z,-0.30
2018-12-11T06:58:02.563Z,-0.20
2018-12-11T07:00:33.470Z,-0.30
2018-12-11T07:03:17.298Z,-0.30
2018-12-11T07:05:55.254Z,-0.30
2018-12-11T07:11:21.211Z,-0.10
2018-12-11T07:13:49.889Z,-0.20
2018-12-11T07:16:23.378Z,-0.30
2018-12-11T07:18:56.877Z,-0.40
2018-12-11T07:21:30.189Z,-0.50
2018-12-11T07:24:03.628Z,-0.60
2018-12-11T07:26:32.550Z,-0.60
2018-12-11T07:29:05.793Z,-0.70
2018-12-11T07:31:34.656Z,-0.80
2018-12-11T07:34:12.133Z,-1.80
2018-12-11T07:36:42.718Z,-0.80
2018-12-11T07:39:11.250Z,-0.80
2018-12-11T07:41:41.736Z,-0.80
2018-12-11T07:44:13.222Z,-0.80
2018-12-11T07:46:43.753Z,-0.80
2018-12-11T07:49:14.315Z,-0.70
2018-12-11T07:51:48.736Z,-0.70
2018-12-11T07:54:22.606Z,-0.60
2018-12-11T07:56:51.537Z,-0.60
2018-12-11T07:59:22.206Z,-0.60
2018-12-11T08:01:55.891Z,-0.50
2018-12-11T08:10:21.833Z,-0.30
2018-12-11T08:12:52.435Z,-0.30
2018-12-11T08:15:23.319Z,-0.20
2018-12-11T08:17:54.074Z,-0.10
2018-12-11T08:20:31.596Z,0.00
2018-12-11T08:23:02.480Z,0.10
2018-12-11T08:25:33.839Z,0.30
2018-12-11T08:28:04.517Z,0.30
2018-12-11T08:30:37.654Z,0.30
2018-12-11T08:33:11.082Z,0.30
2018-12-11T08:35:42.158Z,0.40
2018-12-11T08:38:16.552Z,0.40
2018-12-11T08:40:56.557Z,0.50
2018-12-11T08:43:39.049Z,0.50
2018-12-11T08:46:10.160Z,0.70
2018-12-11T08:48:38.837Z,0.90
2018-12-11T08:51:20.816Z,1.10
2018-12-11T08:53:54.691Z,1.30
2018-12-11T08:56:23.710Z,1.30
2018-12-11T08:58:53.005Z,1.40
2018-12-11T09:01:26.546Z,1.50
2018-12-11T09:03:57.524Z,1.80
2018-12-11T09:06:28.702Z,1.90
2018-12-11T09:09:03.251Z,2.10
2018-12-11T09:11:45.740Z,2.30
2018-12-11T09:17:18.651Z,2.80
2018-12-11T09:19:52.124Z,3.00
2018-12-11T09:25:25.977Z,3.10
2018-12-11T09:27:56.856Z,3.30
2018-12-11T09:30:40.863Z,3.60
2018-12-11T09:33:14.715Z,4.10
2018-12-11T09:35:45.705Z,4.20
2018-12-11T09:38:19.016Z,4.40
2018-12-11T09:40:47.744Z,4.80
2018-12-11T09:43:31.882Z,5.10
2018-12-11T09:46:03.144Z,5.50
2018-12-11T09:58:38.164Z,5.70
2018-12-11T10:01:10.456Z,5.60
2018-12-11T10:03:44.526Z,5.40
2018-12-11T10:06:15.511Z,5.10
2018-12-11T10:11:45.997Z,4.30
2018-12-11T10:14:16.924Z,3.70
2018-12-11T10:17:07.596Z,3.40
2018-12-11T10:19:40.732Z,3.00
2018-12-11T10:22:09.549Z,2.60
2018-12-11T10:24:40.064Z,2.40
2018-12-11T10:27:13.414Z,2.20
2018-12-11T10:29:44.283Z,2.20
2018-12-11T10:32:16.068Z,2.00
2018-12-11T10:34:46.721Z,2.00
2018-12-11T10:40:13.158Z,2.10
2018-12-11T10:42:44.172Z,2.20
2018-12-11T10:45:14.978Z,2.30
2018-12-11T10:47:58.735Z,2.40
2018-12-11T10:50:45.801Z,2.50
2018-12-11T10:53:16.497Z,2.50
2018-12-11T11:01:14.743Z,2.40
2018-12-11T11:03:45.734Z,2.30
2018-12-11T11:09:10.223Z,2.40
2018-12-11T11:11:43.688Z,2.60
2018-12-11T11:14:21.275Z,3.00
2018-12-11T11:17:05.224Z,3.40
2018-12-11T11:19:45.563Z,3.70
2018-12-11T11:22:20.790Z,3.70
2018-12-11T11:24:56.136Z,3.70
2018-12-11T11:27:26.963Z,3.50
2018-12-11T11:32:52.719Z,3.40
2018-12-11T11:35:26.206Z,3.50
2018-12-11T11:38:00.496Z,3.60
2018-12-11T11:40:36.293Z,3.70
2018-12-11T11:43:07.268Z,3.60
2018-12-11T11:45:40.688Z,3.60
2018-12-11T11:48:14.379Z,3.50
2018-12-11T11:50:48.166Z,3.50
2018-12-11T11:53:32.303Z,3.50
2018-12-11T11:56:08.438Z,3.50
2018-12-11T11:58:39.241Z,3.50
2018-12-11T12:01:10.052Z,3.60
2018-12-11T12:03:43.514Z,3.70
2018-12-11T12:06:18.247Z,3.60
2018-12-11T12:08:51.732Z,3.60
2018-12-11T12:14:17.955Z,3.60
2018-12-11T12:16:48.760Z,3.60
2018-12-11T12:19:22.288Z,3.60
2018-12-11T12:21:55.804Z,3.60
2018-12-11T12:24:28.076Z,3.60
2018-12-11T12:26:57.420Z,3.50
2018-12-11T12:32:23.878Z,3.30
2018-12-11T12:34:59.287Z,3.20
2018-12-11T12:40:30.266Z,3.00
2018-12-11T12:43:12.179Z,2.90
2018-12-11T12:45:50.213Z,2.90
2018-12-11T12:48:27.594Z,2.90
2018-12-11T12:54:02.486Z,2.80
2018-12-11T12:59:26.563Z,2.90
2018-12-11T13:02:00.153Z,2.90
2018-12-11T13:04:32.673Z,2.80
2018-12-11T13:07:06.003Z,2.80
2018-12-11T13:09:35.021Z,2.90
2018-12-11T13:12:12.154Z,2.90
2018-12-11T13:14:41.236Z,3.10
2018-12-11T13:20:05.408Z,3.30
2018-12-11T13:22:47.832Z,3.40
2018-12-11T13:25:19.016Z,3.40
2018-12-11T13:27:48.197Z,3.40
2018-12-11T13:30:21.579Z,3.20
2018-12-11T13:32:52.343Z,3.10
2018-12-11T13:38:18.907Z,3.00
2018-12-11T13:40:49.951Z,2.90
2018-12-11T13:43:23.111Z,2.70
2018-12-11T13:45:51.912Z,2.70
2018-12-11T13:48:23.561Z,2.70
2018-12-11T13:50:54.946Z,2.70
2018-12-11T13:53:25.538Z,2.70
2018-12-11T13:55:59.361Z,2.70
2018-12-11T14:01:30.246Z,2.60
2018-12-11T14:04:03.675Z,2.60
2018-12-11T14:15:13.354Z,2.50
2018-12-11T14:17:48.553Z,2.50
2018-12-11T14:20:17.220Z,2.40
2018-12-11T14:22:48.096Z,2.30
2018-12-11T14:25:21.511Z,2.30
2018-12-11T14:27:55.288Z,2.30
2018-12-11T14:33:22.256Z,2.30
2018-12-11T14:35:52.858Z,2.30
2018-12-11T14:41:16.603Z,2.30
2018-12-11T14:46:43.924Z,2.30
2018-12-11T14:55:00.470Z,2.20
2018-12-11T14:57:31.457Z,2.10
2018-12-11T15:00:01.202Z,2.00
2018-12-11T15:02:39.672Z,1.90
2018-12-11T15:05:09.133Z,1.90
2018-12-11T15:07:40.277Z,1.80
2018-12-11T15:10:13.665Z,1.80
2018-12-11T15:15:44.309Z,1.60
2018-12-11T15:18:13.032Z,1.60
2018-12-11T15:20:43.554Z,1.50
2018-12-11T15:23:14.302Z,1.40
2018-12-11T15:25:44.775Z,1.40
2018-12-11T15:28:18.966Z,1.40
2018-12-11T15:30:53.928Z,1.40
2018-12-11T15:33:24.960Z,1.40
2018-12-11T15:35:55.320Z,1.40
2018-12-11T15:41:18.974Z,1.30
2018-12-11T15:43:47.464Z,1.30
2018-12-11T15:46:18.773Z,1.30
2018-12-11T15:48:51.935Z,1.30
2018-12-11T15:54:29.421Z,1.20
2018-12-11T15:57:00.924Z,1.20
2018-12-11T15:59:28.412Z,1.10
2018-12-11T16:02:02.374Z,1.10
2018-12-11T16:04:35.618Z,1.10
2018-12-11T16:10:14.025Z,1.20
2018-12-11T16:15:48.112Z,1.20
2018-12-11T16:18:17.140Z,1.20
2018-12-11T16:20:48.374Z,1.30
2018-12-11T16:23:19.024Z,1.30
2018-12-11T16:25:49.540Z,1.30
2018-12-11T16:31:15.285Z,1.30
2018-12-11T16:33:49.685Z,1.40
2018-12-11T16:36:20.731Z,1.30
2018-12-11T16:38:51.343Z,1.30
2018-12-11T16:41:22.238Z,1.40
2018-12-11T16:43:53.881Z,1.30
2018-12-11T16:51:26.960Z,1.30
2018-12-11T16:53:55.646Z,1.30
2018-12-11T16:56:27.029Z,1.30
2018-12-11T17:01:53.896Z,1.30
2018-12-11T17:04:28.006Z,1.30
2018-12-11T17:09:52.197Z,1.40
2018-12-11T17:12:22.730Z,1.30
2018-12-11T17:14:58.506Z,1.30
2018-12-11T17:17:32.003Z,1.30
2018-12-11T17:20:02.770Z,1.30
2018-12-11T17:22:36.963Z,1.30
2018-12-11T17:25:05.892Z,1.20
2018-12-11T17:27:39.056Z,1.20
2018-12-11T17:30:12.656Z,1.10
2018-12-11T17:38:32.589Z,0.90
2018-12-11T17:43:59.435Z,0.80
2018-12-11T17:49:24.241Z,0.80
2018-12-11T17:54:27.384Z,0.80
2018-12-11T17:56:58.922Z,0.80
2018-12-11T17:59:34.375Z,0.80
2018-12-11T18:02:04.325Z,0.80
2018-12-11T18:04:38.153Z,0.80
2018-12-11T18:07:06.742Z,0.80
2018-12-11T18:09:37.227Z,0.80
2018-12-11T18:12:10.586Z,0.90
2018-12-11T18:14:43.952Z,0.80
2018-12-11T18:20:07.463Z,0.80
2018-12-11T18:22:41.242Z,0.90
2018-12-11T18:25:16.332Z,0.90
2018-12-11T18:27:50.083Z,0.90
2018-12-11T18:30:23.393Z,0.90
2018-12-11T18:32:56.748Z,0.90
2018-12-11T18:35:30.332Z,0.90
2018-12-11T18:38:00.961Z,0.90
2018-12-11T18:40:31.968Z,0.90
2018-12-11T18:43:05.517Z,0.90
2018-12-11T18:45:35.963Z,0.90
2018-12-11T18:48:06.447Z,1.00
2018-12-11T18:50:37.732Z,1.00
2018-12-11T18:56:09.296Z,1.10
2018-12-11T19:01:39.996Z,1.10
2018-12-11T19:04:10.871Z,1.10
2018-12-11T19:06:55.081Z,1.10
2018-12-11T19:09:28.781Z,1.10
2018-12-11T19:12:02.455Z,1.10
2018-12-11T19:14:37.904Z,1.00
2018-12-11T19:17:07.085Z,1.00
2018-12-11T19:19:41.112Z,1.00
2018-12-11T19:22:14.747Z,1.00
2018-12-11T19:24:45.533Z,1.00
2018-12-11T19:27:19.729Z,1.00
2018-12-11T19:29:50.490Z,1.00
2018-12-11T19:32:34.289Z,1.00
2018-12-11T19:35:05.699Z,1.00
2018-12-11T19:37:35.021Z,1.00
2018-12-11T19:40:05.375Z,1.00
2018-12-11T19:42:36.723Z,1.00
2018-12-11T19:45:10.242Z,1.00
2018-12-11T19:47:44.388Z,1.00
2018-12-11T19:50:28.330Z,1.00
2018-12-11T19:52:57.331Z,1.00
2018-12-11T19:55:30.812Z,1.00
2018-12-11T19:58:13.579Z,1.00
2018-12-11T20:00:42.854Z,1.00
2018-12-11T20:03:13.620Z,1.00
2018-12-11T20:05:47.088Z,1.00
2018-12-11T20:08:18.001Z,1.00
2018-12-11T20:10:50.680Z,1.00
2018-12-11T20:13:34.703Z,1.00
2018-12-11T20:16:08.521Z,1.10
2018-12-11T20:18:39.279Z,1.10
2018-12-11T20:21:09.676Z,1.10
2018-12-11T20:23:43.910Z,1.00
2018-12-11T20:26:24.439Z,1.00
2018-12-11T20:28:55.482Z,1.00
2018-12-11T20:31:26.176Z,1.00
2018-12-11T20:33:59.678Z,1.00
2018-12-11T20:36:34.961Z,1.00
2018-12-11T20:39:06.646Z,1.00
2018-12-11T20:41:35.351Z,0.90
2018-12-11T20:44:04.747Z,0.90
2018-12-11T20:46:35.492Z,0.90
2018-12-11T20:52:05.495Z,0.90
2018-12-11T20:54:43.343Z,0.90
2018-12-11T20:57:13.817Z,0.90
2018-12-11T20:59:44.675Z,0.90
2018-12-11T21:02:17.997Z,1.00
2018-12-11T21:04:51.331Z,1.00
2018-12-11T21:07:24.914Z,1.00
2018-12-11T21:10:00.501Z,1.00
2018-12-11T21:12:34.354Z,0.90
2018-12-11T21:15:16.557Z,1.00
2018-12-11T21:17:52.520Z,1.00
2018-12-11T21:20:30.294Z,1.00
2018-12-11T21:23:00.875Z,1.00
2018-12-11T21:25:31.790Z,1.00
2018-12-11T21:28:03.739Z,1.00
2018-12-11T21:30:37.214Z,1.00
2018-12-11T21:33:07.745Z,1.00
2018-12-11T21:35:38.248Z,1.00
2018-12-11T21:38:11.375Z,1.10
2018-12-11T21:40:45.001Z,1.00
2018-12-11T21:43:14.939Z,1.00
2018-12-11T21:45:45.334Z,1.00
2018-12-11T21:48:15.938Z,1.00
2018-12-11T21:50:49.519Z,1.00
2018-12-11T21:53:18.844Z,1.00
2018-12-11T21:55:49.970Z,0.90
2018-12-11T21:58:20.787Z,0.90
2018-12-11T22:00:51.428Z,1.00
2018-12-11T22:03:21.989Z,0.90
2018-12-11T22:05:56.263Z,0.90
2018-12-11T22:08:26.766Z,0.90
2018-12-11T22:11:01.603Z,0.80
2018-12-11T22:13:32.144Z,0.80
2018-12-11T22:16:02.641Z,0.70
2018-12-11T22:18:33.304Z,0.70
2018-12-11T22:21:04.108Z,0.70
2018-12-11T22:23:33.585Z,0.70
2018-12-11T22:26:02.175Z,0.70
2018-12-11T22:28:33.714Z,0.70
2018-12-11T22:31:06.849Z,0.70
2018-12-11T22:33:35.686Z,0.60
2018-12-11T22:36:06.529Z,0.60
2018-12-11T22:38:37.056Z,0.60
2018-12-11T22:44:07.878Z,0.50
2018-12-11T22:46:41.314Z,0.50
2018-12-11T22:49:11.872Z,0.50
2018-12-11T22:51:39.867Z,0.50
2018-12-11T22:54:10.700Z,0.50
2018-12-11T22:56:43.965Z,0.50
2018-12-11T22:59:14.837Z,0.50
2018-12-11T23:01:43.420Z,0.50
2018-12-11T23:07:09.372Z,0.50
2018-12-11T23:09:44.267Z,0.50
2018-12-11T23:12:12.970Z,0.50
2018-12-11T23:14:48.062Z,0.40
2018-12-11T23:17:18.806Z,0.40
2018-12-11T23:22:18.945Z,0.30
2018-12-11T23:24:48.495Z,0.30
2018-12-11T23:27:22.583Z,0.30
2018-12-11T23:29:58.672Z,0.30
2018-12-11T23:32:32.760Z,0.30
2018-12-11T23:35:04.026Z,0.30
2018-12-11T23:37:33.109Z,0.20
2018-12-11T23:40:06.561Z,0.30
2018-12-11T23:42:40.121Z,0.30
2018-12-11T23:45:08.936Z,0.40
2018-12-11T23:50:38.566Z,0.40
2018-12-11T23:53:09.058Z,0.50
2018-12-11T23:55:43.644Z,0.50
2018-12-11T23:58:14.719Z,0.50
